createdAt,value
2019-03-21T00:02:05.852Z,12.47
2019-03-21T00:04:31.707Z,13.00
2019-03-21T00:06:57.534Z,12.67
2019-03-21T00:09:23.407Z,11.97
2019-03-21T00:12:00.380Z,12.43
2019-03-21T00:14:30.221Z,12.07
2019-03-21T00:16:56.194Z,12.73
2019-03-21T00:19:22.055Z,11.53
2019-03-21T00:21:47.870Z,12.57
2019-03-21T00:24:13.900Z,11.87
2019-03-21T00:26:39.852Z,12.33
2019-03-21T00:29:05.707Z,12.43
2019-03-21T00:31:31.532Z,11.67
2019-03-21T00:33:59.491Z,12.80
2019-03-21T00:36:25.343Z,12.47
2019-03-21T00:38:51.444Z,12.77
2019-03-21T00:41:17.365Z,11.60
2019-03-21T00:43:43.290Z,11.97
2019-03-21T00:46:09.149Z,12.13
2019-03-21T00:48:35.079Z,10.97
2019-03-21T00:51:00.996Z,11.93
2019-03-21T00:53:26.860Z,11.13
2019-03-21T00:55:56.495Z,11.63
2019-03-21T00:58:22.660Z,11.40
2019-03-21T01:00:51.577Z,11.20
2019-03-21T01:03:17.461Z,11.33
2019-03-21T01:05:43.395Z,11.23
2019-03-21T01:08:09.333Z,10.60
2019-03-21T01:10:35.406Z,10.87
2019-03-21T01:13:01.347Z,10.40
2019-03-21T01:15:27.275Z,11.20
2019-03-21T01:17:53.257Z,11.43
2019-03-21T01:20:19.100Z,11.93
2019-03-21T01:22:45.302Z,11.97
2019-03-21T01:25:42.497Z,11.77
2019-03-21T01:28:08.453Z,10.37
2019-03-21T01:30:34.452Z,11.07
2019-03-21T01:33:00.309Z,11.00
2019-03-21T01:35:26.144Z,10.97
2019-03-21T01:37:51.987Z,11.67
2019-03-21T01:40:27.476Z,11.40
2019-03-21T01:42:53.390Z,11.27
2019-03-21T01:45:22.213Z,12.17
2019-03-21T01:47:49.256Z,11.40
2019-03-21T01:50:17.709Z,11.67
2019-03-21T01:52:43.900Z,11.20
2019-03-21T01:55:11.408Z,11.53
2019-03-21T01:57:37.652Z,11.03
2019-03-21T02:00:07.426Z,11.10
2019-03-21T02:02:33.402Z,10.80
2019-03-21T02:04:59.409Z,11.33
2019-03-21T02:07:25.248Z,11.10
2019-03-21T02:09:51.062Z,10.97
2019-03-21T02:12:16.953Z,10.97
2019-03-21T02:14:51.803Z,10.97
2019-03-21T02:17:10.518Z,12.03
2019-03-21T02:19:36.543Z,11.77
2019-03-21T02:22:02.627Z,11.67
2019-03-21T02:24:28.567Z,12.03
2019-03-21T02:26:54.461Z,11.73
2019-03-21T02:29:20.400Z,12.20
2019-03-21T02:31:46.224Z,12.30
2019-03-21T02:34:12.278Z,11.47
2019-03-21T02:36:38.116Z,12.10
2019-03-21T02:39:05.153Z,12.23
2019-03-21T02:41:31.192Z,11.70
2019-03-21T02:43:57.159Z,11.60
2019-03-21T02:46:23.250Z,10.63
2019-03-21T02:48:49.344Z,11.57
2019-03-21T02:51:15.305Z,11.10
2019-03-21T02:53:41.282Z,10.73
2019-03-21T02:56:13.917Z,10.83
2019-03-21T02:58:39.820Z,10.23
2019-03-21T03:01:05.890Z,10.67
2019-03-21T03:03:31.855Z,10.30
2019-03-21T03:05:57.759Z,10.50
2019-03-21T03:08:23.599Z,10.83
2019-03-21T03:10:55.702Z,10.23
2019-03-21T03:13:21.678Z,10.83
2019-03-21T03:15:47.518Z,11.27
2019-03-21T03:18:15.359Z,11.37
2019-03-21T03:20:44.840Z,11.20
2019-03-21T03:23:10.912Z,12.23
2019-03-21T03:25:36.877Z,11.87
2019-03-21T03:28:09.475Z,11.80
2019-03-21T03:30:35.310Z,11.50
2019-03-21T03:33:01.277Z,11.43
2019-03-21T03:35:27.389Z,11.10
2019-03-21T03:37:53.491Z,12.53
2019-03-21T03:40:26.022Z,11.97
2019-03-21T03:42:52.008Z,12.47
2019-03-21T03:45:20.937Z,12.30
2019-03-21T03:47:47.066Z,11.47
2019-03-21T03:50:12.907Z,11.80
2019-03-21T03:52:40.870Z,11.83
2019-03-21T03:55:10.560Z,13.10
2019-03-21T03:57:36.565Z,12.90
2019-03-21T04:00:06.224Z,12.17
2019-03-21T04:02:32.313Z,12.57
2019-03-21T04:04:58.238Z,12.60
2019-03-21T04:07:24.297Z,12.63
2019-03-21T04:09:50.338Z,13.07
2019-03-21T04:12:16.294Z,12.77
2019-03-21T04:14:42.267Z,12.67
2019-03-21T04:17:08.085Z,12.90
2019-03-21T04:19:33.926Z,11.77
2019-03-21T04:22:02.550Z,11.47
2019-03-21T04:24:28.546Z,10.90
2019-03-21T04:26:54.599Z,11.03
2019-03-21T04:29:20.440Z,11.93
2019-03-21T04:31:46.401Z,11.17
2019-03-21T04:34:12.245Z,12.43
2019-03-21T04:36:38.077Z,12.57
2019-03-21T04:39:06.331Z,12.43
2019-03-21T04:41:32.210Z,11.60
2019-03-21T04:43:58.274Z,12.60
2019-03-21T04:46:24.139Z,11.50
2019-03-21T04:48:49.978Z,12.33
2019-03-21T04:51:15.831Z,11.40
2019-03-21T04:53:41.677Z,12.07
2019-03-21T04:56:07.861Z,11.17
2019-03-21T04:58:33.801Z,11.93
2019-03-21T05:00:59.856Z,11.63
2019-03-21T05:03:29.783Z,12.07
2019-03-21T05:05:55.833Z,12.00
2019-03-21T05:08:21.896Z,13.20
2019-03-21T05:10:47.834Z,12.67
2019-03-21T05:13:13.674Z,12.23
2019-03-21T05:15:44.570Z,12.90
2019-03-21T05:18:16.522Z,12.33
2019-03-21T05:20:42.474Z,12.80
2019-03-21T05:23:08.364Z,12.80
2019-03-21T05:25:34.309Z,13.67
2019-03-21T05:28:00.155Z,12.93
2019-03-21T05:30:35.731Z,12.73
2019-03-21T05:33:01.731Z,13.10
2019-03-21T05:35:27.572Z,13.10
2019-03-21T05:37:53.402Z,12.60
2019-03-21T05:40:19.671Z,13.67
2019-03-21T05:42:55.149Z,14.00
2019-03-21T05:45:22.724Z,13.50
2019-03-21T05:47:48.580Z,13.47
2019-03-21T05:50:16.021Z,14.40
2019-03-21T05:52:42.080Z,13.67
2019-03-21T05:55:09.712Z,13.53
2019-03-21T05:57:35.691Z,14.30
2019-03-21T06:00:04.252Z,13.80
2019-03-21T06:02:30.066Z,14.50
2019-03-21T06:04:55.896Z,14.87
2019-03-21T06:07:25.621Z,14.77
2019-03-21T06:09:51.481Z,14.67
2019-03-21T06:12:17.333Z,14.27
2019-03-21T06:14:52.834Z,15.60
2019-03-21T06:17:18.687Z,15.20
2019-03-21T06:19:48.366Z,15.03
2019-03-21T06:22:27.039Z,14.90
2019-03-21T06:25:15.943Z,15.23
2019-03-21T06:27:42.000Z,16.00
2019-03-21T06:30:08.558Z,15.27
2019-03-21T06:32:34.470Z,14.63
2019-03-21T06:35:00.394Z,15.77
2019-03-21T06:37:28.586Z,15.47
2019-03-21T06:39:54.481Z,16.27
2019-03-21T06:42:20.331Z,15.87
2019-03-21T06:44:46.154Z,15.77
2019-03-21T06:47:12.112Z,15.77
2019-03-21T06:49:38.029Z,15.53
2019-03-21T06:52:04.177Z,16.17
2019-03-21T06:54:30.027Z,16.13
2019-03-21T06:56:55.884Z,15.87
2019-03-21T06:59:21.781Z,15.90
2019-03-21T07:01:47.811Z,15.33
2019-03-21T07:04:13.663Z,15.53
2019-03-21T07:06:39.710Z,15.57
2019-03-21T07:09:06.660Z,14.43
2019-03-21T07:11:32.496Z,14.90
2019-03-21T07:13:58.469Z,14.87
2019-03-21T07:16:24.309Z,15.30
2019-03-21T07:18:50.242Z,15.33
2019-03-21T07:21:16.181Z,15.90
2019-03-21T07:23:45.250Z,14.73
2019-03-21T07:26:11.195Z,15.07
2019-03-21T07:28:38.647Z,15.60
2019-03-21T07:31:04.755Z,15.00
2019-03-21T07:33:30.657Z,14.17
2019-03-21T07:35:56.582Z,14.43
2019-03-21T07:38:22.452Z,14.47
2019-03-21T07:40:48.294Z,15.23
2019-03-21T07:43:14.155Z,14.43
2019-03-21T07:45:40.052Z,14.87
2019-03-21T07:48:05.981Z,15.40
2019-03-21T07:50:31.935Z,14.67
2019-03-21T07:52:57.798Z,15.03
2019-03-21T07:55:23.759Z,14.07
2019-03-21T07:57:49.735Z,15.43
2019-03-21T08:00:17.093Z,15.47
2019-03-21T08:02:43.147Z,15.97
2019-03-21T08:05:10.228Z,15.43
2019-03-21T08:07:36.082Z,15.53
2019-03-21T08:10:04.339Z,14.77
2019-03-21T08:12:30.308Z,14.03
2019-03-21T08:14:56.261Z,14.50
2019-03-21T08:17:22.070Z,13.97
2019-03-21T08:19:47.944Z,13.83
2019-03-21T08:22:13.805Z,14.30
2019-03-21T08:24:39.803Z,14.10
2019-03-21T08:27:05.784Z,13.83
2019-03-21T08:29:32.103Z,15.37
2019-03-21T08:31:57.944Z,14.27
2019-03-21T08:34:23.779Z,14.00
2019-03-21T08:36:49.708Z,14.50
2019-03-21T08:39:15.707Z,14.77
2019-03-21T08:41:41.553Z,14.93
2019-03-21T08:44:07.589Z,15.37
2019-03-21T08:46:33.430Z,15.20
2019-03-21T08:48:59.358Z,15.07
2019-03-21T08:51:25.408Z,15.07
2019-03-21T08:53:51.588Z,15.03
2019-03-21T08:56:17.435Z,14.43
2019-03-21T08:58:43.654Z,15.37
2019-03-21T09:01:09.702Z,15.43
2019-03-21T09:03:35.640Z,15.60
2019-03-21T09:06:01.575Z,16.03
2019-03-21T09:08:27.475Z,14.90
2019-03-21T09:10:53.325Z,14.97
2019-03-21T09:13:19.150Z,15.23
2019-03-21T09:15:45.187Z,14.30
2019-03-21T09:18:11.051Z,16.17
2019-03-21T09:20:37.087Z,14.37
2019-03-21T09:23:03.073Z,14.70
2019-03-21T09:25:28.967Z,16.13
2019-03-21T09:28:02.554Z,16.20
2019-03-21T09:30:22.842Z,14.47
2019-03-21T09:32:48.686Z,15.07
2019-03-21T09:35:14.778Z,12.90
2019-03-21T09:37:40.615Z,12.73
2019-03-21T09:40:09.390Z,15.37
2019-03-21T09:42:35.233Z,16.70
2019-03-21T09:45:01.270Z,16.63
2019-03-21T09:47:27.120Z,15.43
2019-03-21T09:49:53.059Z,15.43
2019-03-21T09:52:18.982Z,15.07
2019-03-21T09:54:44.930Z,13.77
2019-03-21T09:57:10.873Z,14.90
2019-03-21T09:59:36.715Z,15.13
2019-03-21T10:02:02.837Z,14.53
2019-03-21T10:04:28.709Z,14.70
2019-03-21T10:06:54.653Z,15.53
2019-03-21T10:09:20.611Z,14.67
2019-03-21T10:11:46.438Z,14.97
2019-03-21T10:14:12.282Z,15.43
2019-03-21T10:16:38.369Z,14.57
2019-03-21T10:19:04.303Z,15.30
2019-03-21T10:21:30.154Z,14.07
2019-03-21T10:23:59.056Z,14.70
2019-03-21T10:26:28.525Z,14.63
2019-03-21T10:28:54.359Z,14.17
2019-03-21T10:31:20.250Z,14.53
2019-03-21T10:33:46.085Z,14.17
2019-03-21T10:36:12.129Z,14.43
2019-03-21T10:38:38.309Z,14.20
2019-03-21T10:41:04.368Z,14.60
2019-03-21T10:43:30.230Z,14.67
2019-03-21T10:45:56.176Z,15.03
2019-03-21T10:48:23.565Z,15.33
2019-03-21T10:50:49.573Z,15.23
2019-03-21T10:53:15.463Z,15.10
2019-03-21T10:55:41.322Z,14.67
2019-03-21T10:58:07.834Z,15.23
2019-03-21T11:00:33.926Z,14.60
2019-03-21T11:03:00.000Z,14.77
2019-03-21T11:05:25.955Z,14.93
2019-03-21T11:07:52.033Z,15.37
2019-03-21T11:10:18.068Z,15.47
2019-03-21T11:12:43.920Z,15.10
2019-03-21T11:15:10.058Z,15.03
2019-03-21T11:17:36.004Z,15.80
2019-03-21T11:20:03.896Z,14.43
2019-03-21T11:22:29.806Z,14.87
2019-03-21T11:24:55.631Z,16.33
2019-03-21T11:27:21.735Z,15.57
2019-03-21T11:29:47.566Z,15.50
2019-03-21T11:32:13.655Z,15.60
2019-03-21T11:34:39.628Z,15.83
2019-03-21T11:37:05.443Z,14.67
2019-03-21T11:39:31.318Z,15.33
2019-03-21T11:41:57.172Z,16.53
2019-03-21T11:44:23.028Z,16.53
2019-03-21T11:46:48.897Z,16.70
2019-03-21T11:49:14.745Z,16.20
2019-03-21T11:51:40.688Z,16.87
2019-03-21T11:54:06.645Z,16.80
2019-03-21T11:56:32.493Z,16.73
2019-03-21T11:58:58.348Z,17.13
2019-03-21T12:01:24.278Z,16.87
2019-03-21T12:03:50.119Z,15.53
2019-03-21T12:06:16.001Z,16.47
2019-03-21T12:08:41.937Z,13.43
2019-03-21T12:11:07.878Z,17.43
2019-03-21T12:13:33.770Z,16.87
2019-03-21T12:15:59.598Z,17.30
2019-03-21T12:18:25.493Z,16.63
2019-03-21T12:20:51.340Z,17.27
2019-03-21T12:23:17.283Z,16.33
2019-03-21T12:25:43.098Z,17.63
2019-03-21T12:28:09.036Z,17.40
2019-03-21T12:30:36.444Z,17.27
2019-03-21T12:33:02.989Z,17.33
2019-03-21T12:35:29.066Z,16.93
2019-03-21T12:37:54.934Z,16.90
2019-03-21T12:40:20.880Z,16.60
2019-03-21T12:42:46.825Z,17.97
2019-03-21T12:45:12.972Z,16.90
2019-03-21T12:47:38.908Z,16.80
2019-03-21T12:50:06.846Z,17.80
2019-03-21T12:55:00.394Z,18.00
2019-03-21T12:56:21.938Z,16.10
2019-03-21T12:57:26.357Z,17.70
2019-03-21T12:59:52.418Z,18.50
2019-03-21T13:02:18.491Z,17.70
2019-03-21T13:04:44.444Z,18.83
2019-03-21T13:07:10.289Z,17.20
2019-03-21T13:09:38.474Z,18.43
2019-03-21T13:12:04.290Z,17.20
2019-03-21T13:14:30.111Z,16.97
2019-03-21T13:16:56.018Z,17.70
2019-03-21T13:19:21.877Z,18.85
2019-03-21T13:21:47.735Z,19.07
2019-03-21T13:24:16.417Z,19.10
2019-03-21T13:26:41.470Z,18.77
2019-03-21T13:29:07.359Z,18.67
2019-03-21T13:31:33.182Z,18.92
2019-03-21T13:34:02.947Z,19.25
2019-03-21T13:36:28.882Z,20.32
2019-03-21T13:38:54.835Z,18.82
2019-03-21T13:41:20.687Z,19.40
2019-03-21T13:43:46.571Z,18.27
2019-03-21T13:46:12.499Z,17.73
2019-03-21T13:48:38.499Z,16.90
2019-03-21T13:51:04.322Z,17.67
2019-03-21T13:53:30.231Z,17.07
2019-03-21T13:55:56.117Z,17.27
2019-03-21T13:58:21.999Z,17.07
2019-03-21T14:00:47.849Z,16.75
2019-03-21T14:03:24.647Z,17.25
2019-03-21T14:05:41.553Z,16.57
2019-03-21T14:08:07.413Z,16.77
2019-03-21T14:10:33.299Z,16.40
2019-03-21T14:12:59.247Z,18.67
2019-03-21T14:15:25.181Z,19.32
2019-03-21T14:17:51.084Z,18.62
2019-03-21T14:20:17.320Z,18.67
2019-03-21T14:22:43.193Z,19.23
2019-03-21T14:25:09.361Z,18.00
2019-03-21T14:27:35.389Z,18.20
2019-03-21T14:30:03.299Z,17.42
2019-03-21T14:32:29.142Z,17.05
2019-03-21T14:34:55.136Z,19.60
2019-03-21T14:37:21.093Z,19.12
2019-03-21T14:39:47.114Z,19.85
2019-03-21T14:42:13.150Z,19.50
2019-03-21T14:44:39.017Z,20.80
2019-03-21T14:47:04.977Z,19.82
2019-03-21T14:49:32.763Z,19.70
2019-03-21T14:51:58.618Z,18.70
2019-03-21T14:54:26.031Z,18.67
2019-03-21T14:56:52.053Z,18.87
2019-03-21T14:59:17.905Z,21.45
2019-03-21T15:01:43.906Z,19.15
2019-03-21T15:04:09.786Z,20.55
2019-03-21T15:06:35.615Z,19.82
2019-03-21T15:09:01.615Z,19.90
2019-03-21T15:11:27.548Z,20.43
2019-03-21T15:13:53.362Z,20.52
2019-03-21T15:16:19.340Z,20.15
2019-03-21T15:18:45.237Z,19.70
2019-03-21T15:21:11.159Z,18.95
2019-03-21T15:23:40.830Z,19.45
2019-03-21T15:26:04.772Z,19.73
2019-03-21T15:28:30.718Z,19.87
2019-03-21T15:30:56.724Z,19.27
2019-03-21T15:33:22.672Z,20.62
2019-03-21T15:35:48.625Z,20.35
2019-03-21T15:38:14.589Z,20.02
2019-03-21T15:40:40.415Z,20.45
2019-03-21T15:43:06.403Z,21.68
2019-03-21T15:45:32.447Z,20.15
2019-03-21T15:47:58.543Z,21.55
2019-03-21T15:50:29.875Z,20.80
2019-03-21T15:52:55.937Z,28.45
2019-03-21T15:55:21.789Z,20.08
2019-03-21T15:57:47.655Z,21.45
2019-03-21T16:00:17.455Z,20.45
2019-03-21T16:02:43.299Z,21.82
2019-03-21T16:05:09.340Z,21.27
2019-03-21T16:07:35.424Z,21.42
2019-03-21T16:10:01.610Z,21.52
2019-03-21T16:12:28.291Z,22.48
2019-03-21T16:14:54.120Z,22.30
2019-03-21T16:17:19.940Z,22.93
2019-03-21T16:19:45.887Z,22.07
2019-03-21T16:22:11.742Z,22.37
2019-03-21T16:24:37.622Z,21.60
2019-03-21T16:32:10.749Z,20.90
2019-03-21T16:34:36.692Z,21.87
2019-03-21T16:37:06.151Z,23.27
2019-03-21T16:39:32.111Z,22.17
2019-03-21T16:41:58.041Z,23.07
2019-03-21T16:44:23.972Z,22.87
2019-03-21T16:46:49.828Z,37.30
2019-03-21T16:49:15.687Z,22.67
2019-03-21T16:51:41.547Z,23.13
2019-03-21T16:54:16.557Z,22.63
2019-03-21T16:56:35.220Z,22.53
2019-03-21T16:59:01.057Z,22.67
2019-03-21T17:01:26.919Z,21.93
2019-03-21T17:03:52.807Z,21.60
2019-03-21T17:06:18.762Z,21.80
2019-03-21T17:08:44.719Z,21.13
2019-03-21T17:11:10.723Z,21.30
2019-03-21T17:13:36.674Z,20.80
2019-03-21T17:16:05.526Z,20.90
2019-03-21T17:18:30.498Z,21.40
2019-03-21T17:20:56.521Z,21.87
2019-03-21T17:23:22.378Z,20.87
2019-03-21T17:25:48.223Z,21.73
2019-03-21T17:28:14.162Z,21.07
2019-03-21T17:30:40.049Z,21.40
2019-03-21T17:33:06.079Z,20.97
2019-03-21T17:35:32.142Z,21.13
2019-03-21T17:37:58.046Z,21.73
2019-03-21T17:40:23.925Z,20.87
2019-03-21T17:42:49.916Z,20.33
2019-03-21T17:45:16.869Z,20.73
2019-03-21T17:47:42.949Z,21.23
2019-03-21T17:50:10.993Z,22.27
2019-03-21T17:52:36.845Z,20.27
2019-03-21T17:55:04.976Z,21.50
2019-03-21T17:57:34.765Z,21.40
2019-03-21T17:59:58.572Z,20.97
2019-03-21T18:02:24.948Z,20.97
2019-03-21T18:04:50.882Z,42.83
2019-03-21T18:07:16.914Z,22.03
2019-03-21T18:09:43.023Z,21.23
2019-03-21T18:12:08.844Z,21.57
2019-03-21T18:14:34.789Z,22.00
2019-03-21T18:17:01.338Z,21.33
2019-03-21T18:19:27.316Z,21.60
2019-03-21T18:21:53.243Z,22.30
2019-03-21T18:24:19.266Z,22.37
2019-03-21T18:26:45.055Z,21.43
2019-03-21T18:29:11.001Z,21.53
2019-03-21T18:31:36.872Z,23.00
2019-03-21T18:34:02.911Z,20.90
2019-03-21T18:36:29.218Z,22.13
2019-03-21T18:38:59.516Z,21.50
2019-03-21T18:41:23.136Z,21.33
2019-03-21T18:43:49.156Z,21.40
2019-03-21T18:46:15.020Z,22.63
2019-03-21T18:48:40.951Z,21.07
2019-03-21T18:51:06.929Z,21.77
2019-03-21T18:53:32.846Z,21.47
2019-03-21T18:55:58.785Z,21.83
2019-03-21T18:58:24.674Z,22.03
2019-03-21T19:00:50.590Z,21.93
2019-03-21T19:03:16.448Z,22.13
2019-03-21T19:05:42.293Z,21.70
2019-03-21T19:08:08.136Z,21.30
2019-03-21T19:10:34.479Z,22.20
2019-03-21T19:13:00.304Z,23.67
2019-03-21T19:15:26.194Z,23.97
2019-03-21T19:17:52.024Z,24.60
2019-03-21T19:20:18.218Z,24.20
2019-03-21T19:22:44.391Z,25.60
2019-03-21T19:25:18.327Z,25.57
2019-03-21T19:27:38.754Z,24.17
2019-03-21T19:30:08.202Z,24.87
2019-03-21T19:32:34.098Z,25.17
2019-03-21T19:35:00.038Z,24.93
2019-03-21T19:37:25.887Z,24.47
2019-03-21T19:39:55.539Z,25.27
2019-03-21T19:42:21.654Z,25.17
2019-03-21T19:44:47.626Z,25.67
2019-03-21T19:47:23.257Z,26.80
2019-03-21T19:49:41.174Z,26.73
2019-03-21T19:52:07.252Z,25.57
2019-03-21T19:54:33.197Z,25.50
2019-03-21T19:56:59.159Z,26.77
2019-03-21T19:59:25.095Z,27.47
2019-03-21T20:01:51.809Z,28.67
2019-03-21T20:04:17.665Z,28.50
2019-03-21T20:06:43.595Z,27.90
2019-03-21T20:09:09.505Z,27.67
2019-03-21T20:11:35.440Z,28.17
2019-03-21T20:14:03.861Z,27.60
2019-03-21T20:16:29.197Z,28.23
2019-03-21T20:18:55.152Z,28.20
2019-03-21T20:21:21.042Z,28.00
2019-03-21T20:23:46.879Z,27.83
2019-03-21T20:26:12.753Z,26.87
2019-03-21T20:28:38.740Z,27.43
2019-03-21T20:31:04.576Z,26.83
2019-03-21T20:33:30.528Z,27.20
2019-03-21T20:35:56.420Z,26.73
2019-03-21T20:38:22.244Z,28.27
2019-03-21T20:40:48.166Z,27.80
2019-03-21T20:43:14.058Z,27.70
2019-03-21T20:45:39.888Z,29.40
2019-03-21T20:48:05.849Z,28.50
2019-03-21T20:50:31.714Z,29.03
2019-03-21T20:52:57.537Z,29.90
2019-03-21T20:55:23.601Z,30.10
2019-03-21T20:57:49.535Z,29.97
2019-03-21T21:00:22.567Z,29.73
2019-03-21T21:02:48.882Z,29.03
2019-03-21T21:05:15.009Z,30.17
2019-03-21T21:07:40.977Z,30.67
2019-03-21T21:10:08.624Z,30.40
2019-03-21T21:12:36.407Z,29.50
2019-03-21T21:15:04.980Z,29.03
2019-03-21T21:17:30.892Z,29.30
2019-03-21T21:19:56.876Z,29.50
2019-03-21T21:22:22.752Z,28.90
2019-03-21T21:24:48.665Z,28.67
2019-03-21T21:27:14.552Z,29.53
2019-03-21T21:29:42.959Z,29.20
2019-03-21T21:32:08.326Z,28.93
2019-03-21T21:34:34.352Z,30.03
2019-03-21T21:37:00.282Z,27.17
2019-03-21T21:39:26.300Z,28.13
2019-03-21T21:41:52.198Z,26.67
2019-03-21T21:44:18.025Z,27.07
2019-03-21T21:46:43.872Z,27.27
2019-03-21T21:49:09.792Z,28.00
2019-03-21T21:51:35.657Z,26.80
2019-03-21T21:54:01.504Z,27.63
2019-03-21T21:56:27.339Z,27.00
2019-03-21T21:58:53.221Z,28.57
2019-03-21T22:01:19.319Z,27.10
2019-03-21T22:03:45.194Z,26.97
2019-03-21T22:06:11.047Z,26.57
2019-03-21T22:08:36.974Z,27.20
2019-03-21T22:11:03.042Z,27.10
2019-03-21T22:13:28.984Z,27.33
2019-03-21T22:15:54.802Z,27.30
2019-03-21T22:18:20.643Z,26.83
2019-03-21T22:20:46.535Z,26.70
2019-03-21T22:23:12.348Z,27.83
2019-03-21T22:25:38.296Z,26.57
2019-03-21T22:28:04.343Z,26.67
2019-03-21T22:30:30.180Z,25.80
2019-03-21T22:32:56.010Z,26.17
2019-03-21T22:35:21.958Z,30.30
2019-03-21T22:37:48.069Z,26.23
2019-03-21T22:40:15.310Z,25.57
2019-03-21T22:42:45.148Z,25.23
2019-03-21T22:45:12.819Z,25.70
2019-03-21T22:47:39.050Z,25.37
2019-03-21T22:50:14.745Z,26.40
2019-03-21T22:52:40.321Z,27.00
2019-03-21T22:55:06.753Z,27.13
2019-03-21T22:57:32.643Z,25.47
2019-03-21T22:59:58.480Z,27.20
2019-03-21T23:02:24.423Z,27.43
2019-03-21T23:04:50.359Z,26.50
2019-03-21T23:07:16.611Z,25.80
2019-03-21T23:09:42.451Z,25.33
2019-03-21T23:12:08.296Z,26.07
2019-03-21T23:14:34.127Z,25.33
2019-03-21T23:16:59.946Z,26.00
2019-03-21T23:19:25.971Z,25.90
2019-03-21T23:21:51.924Z,26.27
2019-03-21T23:24:17.888Z,26.67
2019-03-21T23:26:52.520Z,25.80
2019-03-21T23:29:11.576Z,24.57
2019-03-21T23:31:37.502Z,26.37
2019-03-21T23:34:03.352Z,25.90
2019-03-21T23:36:29.189Z,25.47
2019-03-21T23:38:55.164Z,26.33
2019-03-21T23:41:21.007Z,26.90
2019-03-21T23:43:46.891Z,25.53
2019-03-21T23:46:12.956Z,25.60
2019-03-21T23:48:38.786Z,26.03
2019-03-21T23:51:04.717Z,26.00
2019-03-21T23:53:30.603Z,26.00
2019-03-21T23:55:56.514Z,26.30
2019-03-21T23:58:22.462Z,25.63
